Time;durP1;ratioP1;P1;durP2;ratioP2;P2;SDS_P1;SDS_P2;PMS_P1;PMS_P2;Temp;Humidity;BMP_temperature;BMP_pressure;BME280_temperature;BME280_humidity;BME280_pressure;Samples;Min_cycle;Max_cycle;Signal;HPM_P1;HPM_P2
2023/05/24 00:00:43;;;;;;;10.53;4.50;;;;;;;16.52;53.55;101070.34;4864660;29;20305;-67
2023/05/24 00:03:14;;;;;;;10.70;4.43;;;;;;;16.44;53.70;101073.06;4863828;29;20298;-66
2023/05/24 00:05:45;;;;;;;11.23;4.03;;;;;;;16.44;53.84;101070.38;4863023;29;20336;-66
2023/05/24 00:08:14;;;;;;;12.87;4.40;;;;;;;16.47;53.53;101067.34;4863685;29;20921;-67
2023/05/24 00:10:42;;;;;;;15.33;4.63;;;;;;;16.42;53.27;101064.34;4862304;29;21184;-66
2023/05/24 00:13:10;;;;;;;11.30;4.20;;;;;;;16.46;53.38;101065.66;4865129;29;20685;-66
2023/05/24 00:15:38;;;;;;;11.73;4.90;;;;;;;16.30;53.74;101068.38;4864042;29;20337;-66
2023/05/24 00:18:06;;;;;;;17.30;4.63;;;;;;;16.24;53.69;101071.75;4861135;29;20222;-66
2023/05/24 00:20:34;;;;;;;14.37;4.43;;;;;;;16.22;53.88;101068.41;4860499;29;20229;-67
2023/05/24 00:23:03;;;;;;;14.17;3.83;;;;;;;16.17;53.61;101059.06;4861575;29;20246;-67
2023/05/24 00:25:31;;;;;;;10.00;4.47;;;;;;;16.32;53.30;101053.84;4858508;29;20249;-67
2023/05/24 00:27:58;;;;;;;12.67;4.23;;;;;;;16.35;53.12;101052.66;4862847;29;20313;-66
2023/05/24 00:30:26;;;;;;;11.20;3.90;;;;;;;16.30;53.14;101046.97;4863446;29;20218;-67
2023/05/24 00:32:54;;;;;;;11.43;3.80;;;;;;;16.23;53.46;101040.63;4866037;29;20697;-66
2023/05/24 00:35:22;;;;;;;11.47;4.20;;;;;;;16.10;53.68;101050.00;4861577;29;20241;-66
2023/05/24 00:37:49;;;;;;;13.20;4.13;;;;;;;16.11;53.57;101049.00;4861485;29;20217;-65
2023/05/24 00:40:18;;;;;;;9.87;3.97;;;;;;;16.08;53.63;101044.03;4860528;29;20333;-67
2023/05/24 00:42:46;;;;;;;10.93;4.37;;;;;;;15.95;54.06;101041.03;4858655;29;20214;-66
2023/05/24 00:45:14;;;;;;;10.63;3.97;;;;;;;16.00;54.06;101036.00;4860926;29;20230;-67
2023/05/24 00:47:42;;;;;;;12.53;4.27;;;;;;;16.03;53.66;101043.69;4861521;29;20201;-66
2023/05/24 00:50:11;;;;;;;11.03;3.83;;;;;;;16.18;53.50;101030.47;4860940;29;20218;-66
2023/05/24 00:52:41;;;;;;;13.33;3.90;;;;;;;16.03;53.60;101032.97;4862075;29;20210;-66
2023/05/24 00:55:10;;;;;;;9.30;4.20;;;;;;;15.95;53.75;101035.66;4862215;29;20214;-66
2023/05/24 00:57:39;;;;;;;12.67;4.10;;;;;;;15.85;54.10;101029.66;4860916;29;20240;-67
2023/05/24 01:00:10;;;;;;;12.23;3.43;;;;;;;15.93;53.59;101043.03;4862548;29;20246;-67
2023/05/24 01:02:37;;;;;;;15.03;4.30;;;;;;;15.93;53.36;101039.50;4858759;29;22058;-66
2023/05/24 01:05:06;;;;;;;9.97;3.90;;;;;;;15.81;53.72;101044.38;4859941;29;20275;-67
2023/05/24 01:07:45;;;;;;;12.87;4.20;;;;;;;15.72;54.02;101046.22;4862789;29;20637;-67
2023/05/24 01:10:21;;;;;;;12.63;3.70;;;;;;;15.77;53.41;101043.03;4860003;29;20254;-66
2023/05/24 01:12:59;;;;;;;10.83;3.87;;;;;;;15.70;53.87;101053.56;4861700;29;20222;-65
2023/05/24 01:15:37;;;;;;;10.80;3.83;;;;;;;15.61;53.77;101056.41;4861236;29;20299;-66
2023/05/24 01:18:11;;;;;;;16.57;4.17;;;;;;;15.55;54.06;101057.94;4858668;29;20680;-65
2023/05/24 01:20:40;;;;;;;9.90;4.10;;;;;;;15.43;54.27;101062.72;4858302;29;20313;-66
2023/05/24 01:23:29;;;;;;;11.30;3.97;;;;;;;15.47;54.02;101062.41;4853509;29;20241;-67
2023/05/24 01:26:16;;;;;;;12.57;4.13;;;;;;;15.56;53.70;101062.28;4857515;29;20630;-67
2023/05/24 01:28:48;;;;;;;10.10;3.90;;;;;;;15.52;53.66;101060.06;4858824;29;20277;-66
2023/05/24 01:31:17;;;;;;;13.73;3.90;;;;;;;15.43;53.93;101062.72;4858631;29;20306;-66
2023/05/24 01:33:45;;;;;;;11.93;3.70;;;;;;;15.51;53.92;101069.06;4861977;29;20858;-65
2023/05/24 01:36:13;;;;;;;13.73;4.43;;;;;;;15.48;53.79;101069.41;4862639;29;20226;-66
2023/05/24 01:38:41;;;;;;;15.17;4.13;;;;;;;15.49;53.71;101060.38;4855922;29;21135;-66
2023/05/24 01:41:20;;;;;;;11.70;3.77;;;;;;;15.47;53.86;101059.72;4859945;29;20309;-65
2023/05/24 01:43:56;;;;;;;13.73;4.70;;;;;;;15.47;53.86;101057.88;4861583;29;20907;-66
2023/05/24 01:46:35;;;;;;;10.40;4.20;;;;;;;15.35;54.02;101065.38;4863273;29;20617;-66
2023/05/24 01:49:12;;;;;;;14.73;4.67;;;;;;;15.38;53.96;101059.72;4862521;29;20209;-66
2023/05/24 01:51:45;;;;;;;13.10;4.00;;;;;;;15.36;53.82;101053.69;4860868;29;20221;-65
2023/05/24 01:54:14;;;;;;;17.27;4.07;;;;;;;15.38;53.81;101065.06;4861215;29;20228;-65
2023/05/24 01:56:44;;;;;;;10.23;3.67;;;;;;;15.34;54.12;101062.88;4860085;29;20217;-65
2023/05/24 01:59:14;;;;;;;12.77;3.80;;;;;;;15.44;53.59;101059.03;4861684;29;20279;-66
2023/05/24 02:01:42;;;;;;;12.90;4.03;;;;;;;15.34;53.68;101071.72;4860707;29;20221;-66
2023/05/24 02:04:10;;;;;;;11.30;3.77;;;;;;;15.29;53.74;101071.38;4864390;29;20221;-67
2023/05/24 02:06:38;;;;;;;16.13;4.43;;;;;;;15.22;53.75;101065.00;4865412;29;20333;-66
2023/05/24 02:09:06;;;;;;;14.37;3.90;;;;;;;15.36;53.26;101068.88;4862964;29;20213;-65
2023/05/24 02:11:33;;;;;;;11.33;3.70;;;;;;;15.28;53.67;101068.88;4869049;29;20305;-66
2023/05/24 02:14:01;;;;;;;11.97;3.30;;;;;;;15.29;53.35;101070.56;4862724;29;22102;-67
2023/05/24 02:16:30;;;;;;;10.70;3.20;;;;;;;15.29;53.44;101068.72;4861786;29;20218;-66
2023/05/24 02:18:58;;;;;;;15.60;3.40;;;;;;;15.54;52.61;101080.31;4864628;29;20228;-66
2023/05/24 02:21:27;;;;;;;9.20;3.13;;;;;;;15.28;53.22;101072.38;4863681;29;20214;-66
2023/05/24 02:23:55;;;;;;;12.20;3.57;;;;;;;15.33;53.02;101072.72;4864005;29;20259;-66
2023/05/24 02:26:23;;;;;;;15.10;3.80;;;;;;;15.33;53.17;101078.06;4865932;29;20237;-66
2023/05/24 02:28:51;;;;;;;9.23;3.53;;;;;;;15.23;53.31;101076.53;4867851;29;20325;-66
2023/05/24 02:31:20;;;;;;;12.37;3.57;;;;;;;15.40;53.00;101073.72;4859598;29;20317;-67
2023/05/24 02:33:49;;;;;;;13.13;3.00;;;;;;;15.61;52.41;101067.94;4862995;29;20218;-66
2023/05/24 02:36:17;;;;;;;11.30;3.83;;;;;;;15.38;52.84;101070.41;4861241;29;20263;-66
2023/05/24 02:38:45;;;;;;;15.10;4.37;;;;;;;15.17;53.79;101066.50;4862269;29;20222;-66
2023/05/24 02:41:16;;;;;;;14.53;3.53;;;;;;;15.17;53.94;101062.00;4857392;29;20240;-66
2023/05/24 02:43:44;;;;;;;14.67;3.60;;;;;;;15.40;53.27;101060.34;4866499;29;20237;-66
2023/05/24 02:46:13;;;;;;;9.27;3.30;;;;;;;15.43;52.88;101069.91;4865475;29;20214;-66
2023/05/24 02:48:40;;;;;;;8.90;3.10;;;;;;;15.20;53.66;101072.38;4855569;29;20727;-66
2023/05/24 02:51:09;;;;;;;14.87;3.47;;;;;;;15.25;53.50;101072.69;4859745;29;20213;-67
2023/05/24 02:53:37;;;;;;;14.20;3.87;;;;;;;15.31;53.24;101064.03;4862360;29;20262;-67
2023/05/24 02:56:06;;;;;;;16.87;3.30;;;;;;;15.22;53.46;101069.50;4863175;29;22068;-67
2023/05/24 02:58:39;;;;;;;17.87;4.53;;;;;;;15.27;54.00;101073.38;4863153;29;20239;-67
2023/05/24 03:01:07;;;;;;;14.27;3.83;;;;;;;15.33;53.77;101072.72;4859787;29;20589;-65
2023/05/24 03:03:35;;;;;;;12.53;3.67;;;;;;;15.03;54.57;101079.50;4862919;29;20615;-67
2023/05/24 03:06:03;;;;;;;14.33;4.17;;;;;;;15.23;53.98;101076.53;4864757;29;20621;-67
2023/05/24 03:08:32;;;;;;;12.47;4.17;;;;;;;15.30;53.76;101074.91;4862997;29;20241;-66
2023/05/24 03:10:59;;;;;;;15.33;4.13;;;;;;;15.14;54.13;101078.34;4864834;29;20217;-64
2023/05/24 03:13:27;;;;;;;13.87;3.80;;;;;;;15.10;54.21;101081.53;4858436;29;20233;-66
2023/05/24 03:15:55;;;;;;;12.30;3.93;;;;;;;15.02;54.59;101075.16;4862676;29;20216;-65
2023/05/24 03:18:23;;;;;;;11.97;3.73;;;;;;;15.42;53.40;101077.06;4864090;29;20934;-66
2023/05/24 03:20:51;;;;;;;8.73;3.20;;;;;;;15.56;52.67;101077.47;4864530;29;20214;-66
2023/05/24 03:23:19;;;;;;;18.43;4.47;;;;;;;15.31;53.08;101074.72;4863021;29;20274;-64
2023/05/24 03:25:48;;;;;;;24.73;4.23;;;;;;;15.15;53.86;101077.34;4859821;29;20241;-67
2023/05/24 03:28:16;;;;;;;15.23;3.47;;;;;;;15.15;54.38;101076.50;4860882;29;20259;-66
2023/05/24 03:30:43;;;;;;;11.40;4.03;;;;;;;15.31;53.95;101077.38;4863767;29;20213;-65
2023/05/24 03:33:11;;;;;;;13.27;3.73;;;;;;;15.36;53.72;101083.09;4870610;29;20680;-68
2023/05/24 03:35:39;;;;;;;15.53;3.73;;;;;;;15.39;53.71;101077.41;4865778;29;20340;-67
2023/05/24 03:38:07;;;;;;;9.50;3.40;;;;;;;15.38;53.11;101073.06;4857063;29;20233;-67
2023/05/24 03:40:35;;;;;;;12.07;3.27;;;;;;;15.41;53.03;101070.06;4863045;29;20305;-67
2023/05/24 03:43:04;;;;;;;13.53;3.30;;;;;;;15.38;52.87;101080.25;4861618;29;20222;-68
2023/05/24 03:45:32;;;;;;;15.33;4.13;;;;;;;15.30;53.02;101069.56;4856108;29;20225;-69
2023/05/24 03:48:07;;;;;;;15.33;4.33;;;;;;;15.37;52.57;101074.06;4860368;29;20286;-65
2023/05/24 03:50:35;;;;;;;11.37;3.07;;;;;;;15.41;52.11;101074.56;4863027;29;20232;-68
2023/05/24 03:53:02;;;;;;;11.00;3.70;;;;;;;15.31;52.46;101077.38;4864405;29;20226;-65
2023/05/24 03:55:30;;;;;;;10.03;3.10;;;;;;;15.30;52.66;101073.03;4861655;29;20213;-64
2023/05/24 03:57:58;;;;;;;17.77;3.77;;;;;;;15.26;52.64;101082.41;4861712;29;20781;-64
2023/05/24 04:00:29;;;;;;;15.70;3.80;;;;;;;15.17;52.88;101080.69;4860669;29;20291;-65
2023/05/24 04:02:56;;;;;;;13.03;4.00;;;;;;;15.21;52.95;101078.56;4858564;29;20236;-65
2023/05/24 04:05:25;;;;;;;12.00;3.27;;;;;;;15.09;53.56;101080.69;4861762;29;20221;-65
2023/05/24 04:07:53;;;;;;;12.33;2.90;;;;;;;15.11;53.53;101078.69;4863755;29;20272;-67
2023/05/24 04:10:21;;;;;;;13.97;4.20;;;;;;;15.17;52.83;101082.53;4862163;29;20577;-64
2023/05/24 04:12:49;;;;;;;10.10;3.13;;;;;;;15.14;52.91;101089.03;4863074;29;20220;-64
2023/05/24 04:15:17;;;;;;;9.57;3.93;;;;;;;15.11;53.05;101088.53;4867583;29;20244;-67
2023/05/24 04:17:46;;;;;;;15.23;3.70;;;;;;;15.09;52.88;101087.84;4864669;29;20312;-62
2023/05/24 04:20:14;;;;;;;16.10;3.03;;;;;;;15.07;52.92;101088.00;4867279;29;20220;-63
2023/05/24 04:22:42;;;;;;;8.37;2.97;;;;;;;15.02;52.86;101095.69;4872610;29;20248;-63
2023/05/24 04:25:10;;;;;;;13.93;3.67;;;;;;;14.99;52.74;101085.31;4870377;29;20206;-65
2023/05/24 04:27:37;;;;;;;14.87;3.30;;;;;;;14.97;52.80;101084.63;4864858;29;20296;-66
2023/05/24 04:30:08;;;;;;;11.83;3.37;;;;;;;14.99;52.75;101088.00;4870734;29;20211;-64
2023/05/24 04:32:35;;;;;;;10.40;3.10;;;;;;;14.94;53.08;101093.81;4867838;29;20759;-64
2023/05/24 04:35:06;;;;;;;16.10;4.10;;;;;;;14.84;53.07;101086.94;4862986;29;20313;-64
2023/05/24 04:37:33;;;;;;;16.60;4.70;;;;;;;14.89;53.24;101090.78;4866777;29;20253;-66
2023/05/24 04:40:03;;;;;;;13.83;3.60;;;;;;;14.90;52.61;101102.31;4865471;29;20304;-66
2023/05/24 04:42:31;;;;;;;12.07;3.37;;;;;;;14.84;52.84;101094.94;4865021;29;20255;-64
2023/05/24 04:44:59;;;;;;;13.23;4.30;;;;;;;14.93;51.85;101096.66;4865297;29;20273;-67
2023/05/24 04:47:26;;;;;;;11.77;3.40;;;;;;;14.86;52.50;101095.63;4863849;29;20218;-63
2023/05/24 04:49:54;;;;;;;14.43;3.47;;;;;;;14.84;52.52;101095.78;4863601;29;20775;-64
2023/05/24 04:52:23;;;;;;;10.77;2.87;;;;;;;14.85;52.41;101091.28;4867733;29;20301;-64
2023/05/24 04:54:51;;;;;;;10.27;2.90;;;;;;;14.93;52.12;101093.97;4865550;29;20223;-64
2023/05/24 04:57:19;;;;;;;16.43;2.73;;;;;;;14.84;52.53;101087.78;4864704;29;20235;-65
2023/05/24 04:59:47;;;;;;;10.03;3.33;;;;;;;14.88;52.39;101088.28;4864088;29;20303;-66
2023/05/24 05:02:15;;;;;;;15.50;3.90;;;;;;;14.89;52.23;101100.63;4862012;29;20875;-64
2023/05/24 05:04:42;;;;;;;8.40;2.90;;;;;;;14.64;52.95;101103.19;4864237;29;20710;-63
2023/05/24 05:07:10;;;;;;;17.90;4.00;;;;;;;14.57;53.02;101096.00;4863399;29;20725;-65
2023/05/24 05:09:39;;;;;;;13.53;3.77;;;;;;;14.76;52.10;101100.25;4864419;29;20241;-65
2023/05/24 05:12:07;;;;;;;12.97;3.33;;;;;;;14.74;52.91;101112.91;4863364;29;20213;-64
2023/05/24 05:14:35;;;;;;;15.33;3.40;;;;;;;14.80;52.41;101113.09;4863197;29;20302;-64
2023/05/24 05:17:02;;;;;;;11.43;3.13;;;;;;;14.81;52.62;101114.78;4864145;29;20690;-65
2023/05/24 05:19:30;;;;;;;16.40;3.67;;;;;;;14.75;52.86;101118.09;4860984;29;20222;-64
2023/05/24 05:21:58;;;;;;;11.73;2.97;;;;;;;14.81;52.68;101116.63;4864513;29;20225;-63
2023/05/24 05:24:26;;;;;;;13.43;3.23;;;;;;;14.59;52.83;101121.53;4866504;29;20246;-64
2023/05/24 05:26:55;;;;;;;12.23;2.80;;;;;;;14.89;51.68;101122.00;4864961;29;20636;-67
2023/05/24 05:29:22;;;;;;;13.07;3.67;;;;;;;15.03;51.52;101118.72;4866555;29;20255;-62
2023/05/24 05:31:51;;;;;;;13.97;2.77;;;;;;;14.91;51.91;101131.53;4863527;29;20228;-64
2023/05/24 05:34:20;;;;;;;15.10;3.23;;;;;;;14.94;51.53;101125.88;4863550;29;20220;-64
2023/05/24 05:36:47;;;;;;;16.27;3.23;;;;;;;15.13;50.95;101126.63;4862939;29;20792;-65
2023/05/24 05:39:15;;;;;;;15.33;3.20;;;;;;;15.13;50.46;101124.75;4863450;29;20220;-64
2023/05/24 05:41:44;;;;;;;13.00;3.10;;;;;;;15.21;50.08;101130.16;4864931;29;20233;-63
2023/05/24 05:44:14;;;;;;;9.77;2.70;;;;;;;15.04;50.58;101129.22;4860704;29;20221;-65
2023/05/24 05:46:44;;;;;;;13.63;2.90;;;;;;;15.17;49.91;101127.94;4861314;29;20218;-64
2023/05/24 05:49:12;;;;;;;11.13;3.07;;;;;;;15.22;49.93;101129.13;4860677;29;20991;-64
2023/05/24 05:51:40;;;;;;;13.87;3.10;;;;;;;15.25;50.08;101125.31;4861989;29;20320;-63
2023/05/24 05:54:13;;;;;;;11.73;2.97;;;;;;;15.35;50.10;101128.66;4860447;29;20715;-64
2023/05/24 05:56:44;;;;;;;11.40;2.50;;;;;;;15.40;49.83;101132.53;4853708;29;20230;-64
2023/05/24 05:59:12;;;;;;;9.03;2.77;;;;;;;15.46;49.69;101136.41;4860618;29;20672;-64
2023/05/24 06:01:41;;;;;;;14.30;3.33;;;;;;;15.53;49.05;101131.22;4861666;29;20880;-64
2023/05/24 06:04:09;;;;;;;14.53;2.97;;;;;;;15.37;49.84;101126.69;4862771;29;20225;-63
2023/05/24 06:06:37;;;;;;;12.00;3.70;;;;;;;15.46;49.72;101125.69;4865546;29;20313;-63
2023/05/24 06:09:05;;;;;;;9.30;2.80;;;;;;;15.51;49.45;101136.72;4862644;29;20254;-63
2023/05/24 06:11:33;;;;;;;13.33;2.93;;;;;;;15.51;49.36;101133.22;4863927;29;20209;-65
2023/05/24 06:14:01;;;;;;;12.67;2.80;;;;;;;15.62;48.99;101141.81;4862403;29;20677;-65
2023/05/24 06:16:29;;;;;;;10.60;3.07;;;;;;;15.61;48.60;101133.94;4860182;29;20308;-65
2023/05/24 06:18:58;;;;;;;16.37;3.20;;;;;;;15.67;47.85;101135.94;4862751;29;20770;-63
2023/05/24 06:21:35;;;;;;;8.50;2.87;;;;;;;15.64;48.14;101133.63;4863197;29;20212;-68
2023/05/24 06:24:03;;;;;;;15.70;3.10;;;;;;;15.68;47.86;101134.94;4861903;29;20245;-66
2023/05/24 06:26:31;;;;;;;15.03;3.00;;;;;;;15.65;48.03;101129.94;4861751;29;20210;-66
2023/05/24 06:28:59;;;;;;;14.80;3.27;;;;;;;15.70;48.22;101141.81;4861264;29;20253;-65
2023/05/24 06:31:27;;;;;;;18.47;3.53;;;;;;;15.74;47.75;101137.78;4860964;29;20218;-65
2023/05/24 06:33:55;;;;;;;12.93;2.67;;;;;;;15.78;47.56;101149.84;4862492;29;20233;-64
2023/05/24 06:36:34;;;;;;;17.93;4.03;;;;;;;15.82;47.55;101147.69;4860959;29;20210;-64
2023/05/24 06:39:03;;;;;;;13.17;2.57;;;;;;;15.88;47.40;101149.69;4863401;29;20225;-65
2023/05/24 06:41:31;;;;;;;12.17;3.43;;;;;;;15.79;48.18;101153.34;4861037;29;20689;-64
2023/05/24 06:43:59;;;;;;;14.47;2.90;;;;;;;15.93;47.89;101150.00;4860316;29;20625;-65
2023/05/24 06:46:26;;;;;;;11.67;2.60;;;;;;;16.01;47.22;101151.84;4859842;29;20293;-66
2023/05/24 06:48:54;;;;;;;17.57;3.10;;;;;;;16.03;46.59;101150.69;4860958;29;20253;-62
2023/05/24 06:51:22;;;;;;;9.77;2.37;;;;;;;16.00;46.59;101161.75;4860886;29;20243;-65
2023/05/24 06:53:51;;;;;;;19.30;4.17;;;;;;;15.93;46.64;101154.53;4861056;29;20229;-66
2023/05/24 06:56:19;;;;;;;15.17;3.37;;;;;;;16.05;46.74;101155.88;4858342;29;20695;-65
2023/05/24 06:58:47;;;;;;;13.60;3.30;;;;;;;16.07;46.41;101154.72;4864515;29;20222;-64
2023/05/24 07:01:15;;;;;;;20.83;3.57;;;;;;;16.13;45.88;101158.56;4864051;29;20238;-62
2023/05/24 07:03:43;;;;;;;15.47;3.50;;;;;;;16.02;46.64;101158.88;4863001;29;20262;-64
2023/05/24 07:06:12;;;;;;;15.97;2.67;;;;;;;16.13;45.94;101170.09;4861710;29;20250;-64
2023/05/24 07:08:41;;;;;;;11.47;2.20;;;;;;;16.11;45.49;101163.22;4859810;29;20751;-64
2023/05/24 07:11:10;;;;;;;14.07;2.60;;;;;;;16.29;45.29;101165.72;4863158;29;20248;-63
2023/05/24 07:13:38;;;;;;;11.63;2.53;;;;;;;16.35;45.54;101168.59;4860533;29;20306;-64
2023/05/24 07:16:06;;;;;;;10.90;2.47;;;;;;;16.33;45.85;101161.72;4858270;29;20353;-64
2023/05/24 07:18:34;;;;;;;13.60;2.87;;;;;;;16.30;45.54;101170.09;4859907;29;20215;-67
2023/05/24 07:21:02;;;;;;;11.57;3.10;;;;;;;16.42;45.72;101166.06;4860672;29;20287;-64
2023/05/24 07:23:30;;;;;;;12.10;3.07;;;;;;;16.45;45.63;101163.03;4859567;29;20353;-64
2023/05/24 07:25:57;;;;;;;16.83;2.87;;;;;;;16.56;45.27;101166.19;4859172;29;20211;-67
2023/05/24 07:28:26;;;;;;;16.03;2.80;;;;;;;16.56;44.88;101154.66;4862357;29;20282;-64
2023/05/24 07:30:54;;;;;;;14.97;3.33;;;;;;;16.70;44.72;101162.03;4861806;29;20330;-64
2023/05/24 07:33:22;;;;;;;16.63;2.93;;;;;;;16.79;44.74;101163.69;4861719;29;20297;-62
2023/05/24 07:35:51;;;;;;;13.37;2.63;;;;;;;16.79;44.86;101158.34;4861817;29;20295;-63
2023/05/24 07:38:19;;;;;;;11.47;2.43;;;;;;;16.89;44.78;101163.47;4860008;29;20215;-63
2023/05/24 07:40:47;;;;;;;12.13;2.27;;;;;;;16.94;43.98;101150.41;4862756;29;20218;-66
2023/05/24 07:43:15;;;;;;;11.90;2.77;;;;;;;16.91;44.72;101156.94;4861987;29;20685;-65
2023/05/24 07:45:44;;;;;;;8.87;2.50;;;;;;;16.92;44.86;101158.59;4864726;29;20235;-64
2023/05/24 07:48:11;;;;;;;10.53;2.33;;;;;;;16.99;44.69;101168.63;4863641;29;20305;-65
2023/05/24 07:50:39;;;;;;;16.57;2.83;;;;;;;17.02;43.64;101157.56;4864177;29;20238;-63
2023/05/24 07:53:07;;;;;;;12.60;3.10;;;;;;;17.01;43.67;101159.41;4863624;29;20206;-66
2023/05/24 07:55:35;;;;;;;15.73;3.73;;;;;;;17.12;43.48;101158.22;4866510;29;20615;-65
2023/05/24 07:58:03;;;;;;;17.57;2.63;;;;;;;17.13;43.61;101159.88;4863410;29;20302;-65
2023/05/24 08:00:32;;;;;;;8.93;2.30;;;;;;;17.22;42.96;101154.31;4865163;29;20229;-65
2023/05/24 08:03:01;;;;;;;14.47;3.23;;;;;;;17.29;42.67;101157.13;4863167;29;20222;-64
2023/05/24 08:05:29;;;;;;;17.13;3.53;;;;;;;17.33;43.34;101158.44;4864621;29;20245;-63
2023/05/24 08:07:57;;;;;;;11.83;2.73;;;;;;;17.38;43.15;101164.13;4865877;29;20677;-63
2023/05/24 08:10:26;;;;;;;9.40;2.27;;;;;;;17.50;43.30;101151.97;4864383;29;20297;-65
2023/05/24 08:12:54;;;;;;;12.40;2.50;;;;;;;17.59;42.37;101156.28;4861818;29;21035;-64
2023/05/24 08:15:23;;;;;;;13.10;2.97;;;;;;;17.64;43.01;101164.66;4866375;29;20237;-65
2023/05/24 08:17:50;;;;;;;14.50;2.73;;;;;;;17.77;42.54;101163.22;4862655;29;20818;-66
2023/05/24 08:20:19;;;;;;;15.27;3.20;;;;;;;17.82;41.73;101168.91;4865405;29;20229;-64
2023/05/24 08:22:48;;;;;;;11.87;2.87;;;;;;;17.82;41.95;101171.59;4863829;29;20242;-65
2023/05/24 08:25:15;;;;;;;13.93;2.50;;;;;;;17.95;41.80;101166.44;4865913;29;20221;-66
2023/05/24 08:27:43;;;;;;;11.13;3.20;;;;;;;18.01;42.02;101173.81;4863922;29;20789;-68
2023/05/24 08:30:12;;;;;;;17.73;2.97;;;;;;;18.15;42.02;101172.16;4864595;29;20245;-64
2023/05/24 08:32:40;;;;;;;12.63;2.80;;;;;;;18.20;42.00;101175.16;4863457;29;20226;-64
2023/05/24 08:35:09;;;;;;;12.63;2.37;;;;;;;18.26;42.38;101175.28;4863643;29;20902;-65
2023/05/24 08:37:48;;;;;;;12.90;2.90;;;;;;;18.34;42.28;101174.38;4865816;29;20204;-63
2023/05/24 08:40:16;;;;;;;14.67;3.57;;;;;;;18.39;42.02;101175.47;4863878;29;20215;-65
2023/05/24 08:42:45;;;;;;;12.97;2.80;;;;;;;18.46;41.74;101180.13;4864097;29;20320;-65
2023/05/24 08:45:14;;;;;;;11.90;3.03;;;;;;;18.60;40.44;101168.59;4860904;29;20239;-65
2023/05/24 08:47:42;;;;;;;15.07;2.83;;;;;;;18.66;40.91;101175.91;4863002;29;20213;-62
2023/05/24 08:50:10;;;;;;;12.37;3.03;;;;;;;18.79;40.46;101170.75;4864242;29;20697;-64
2023/05/24 08:52:39;;;;;;;7.93;2.30;;;;;;;18.90;39.39;101177.53;4865306;29;20282;-65
2023/05/24 08:55:11;;;;;;;11.90;3.10;;;;;;;18.93;39.46;101174.44;4864638;29;20665;-63
2023/05/24 08:57:40;;;;;;;11.57;2.70;;;;;;;18.99;39.02;101177.25;4863885;29;20226;-66
2023/05/24 09:00:10;;;;;;;11.97;2.97;;;;;;;19.03;39.34;101173.16;4863669;29;20219;-65
2023/05/24 09:02:39;;;;;;;12.47;2.93;;;;;;;19.10;40.11;101184.84;4862805;29;20210;-64
2023/05/24 09:05:10;;;;;;;10.67;2.70;;;;;;;19.21;39.09;101174.63;4861875;29;20223;-66
2023/05/24 09:07:38;;;;;;;9.17;3.07;;;;;;;19.23;39.47;101183.34;4864922;29;20207;-63
2023/05/24 09:10:09;;;;;;;19.10;3.77;;;;;;;19.24;39.99;101177.78;4862859;29;20218;-64
2023/05/24 09:12:38;;;;;;;22.10;3.87;;;;;;;19.34;39.02;101186.41;4862186;29;20218;-68
2023/05/24 09:15:08;;;;;;;14.13;2.97;;;;;;;19.39;39.21;101185.81;4865259;29;20282;-66
2023/05/24 09:17:37;;;;;;;10.60;3.20;;;;;;;19.21;39.53;101180.84;4864896;29;20795;-64
2023/05/24 09:20:07;;;;;;;11.60;2.63;;;;;;;19.07;38.60;101184.38;4861775;29;20219;-64
2023/05/24 09:22:37;;;;;;;10.37;2.60;;;;;;;18.85;39.47;101177.22;4858905;29;21025;-63
2023/05/24 09:25:12;;;;;;;9.47;3.20;;;;;;;18.77;39.12;101168.25;4860606;29;20243;-67
2023/05/24 09:27:40;;;;;;;14.00;3.37;;;;;;;18.91;39.21;101180.00;4861410;29;20253;-65
2023/05/24 09:30:09;;;;;;;15.10;2.50;;;;;;;19.20;38.46;101172.94;4862474;29;20215;-64
2023/05/24 09:32:37;;;;;;;7.13;2.67;;;;;;;19.41;37.95;101170.34;4862148;29;20226;-64
2023/05/24 09:35:09;;;;;;;13.90;3.40;;;;;;;19.53;37.72;101171.53;4861690;29;20210;-63
2023/05/24 09:37:39;;;;;;;11.57;3.30;;;;;;;19.37;36.87;101166.34;4862471;29;20309;-65
2023/05/24 09:40:17;;;;;;;15.63;2.87;;;;;;;19.26;37.83;101166.84;4863576;29;20211;-63
2023/05/24 09:42:45;;;;;;;14.13;3.43;;;;;;;19.07;37.48;101166.41;4861019;29;20219;-63
2023/05/24 09:45:13;;;;;;;11.60;3.30;;;;;;;18.88;38.43;101158.91;4862116;29;20221;-62
2023/05/24 09:47:41;;;;;;;12.50;3.43;;;;;;;18.76;39.07;101171.13;4864096;29;20217;-64
2023/05/24 09:50:13;;;;;;;10.07;3.07;;;;;;;18.91;38.92;101161.19;4863984;29;20300;-65
2023/05/24 09:52:41;;;;;;;11.90;3.13;;;;;;;19.17;38.72;101158.84;4863480;29;20242;-65
2023/05/24 09:55:14;;;;;;;11.40;2.93;;;;;;;19.40;38.54;101147.16;4863033;29;20218;-63
2023/05/24 09:57:43;;;;;;;14.13;3.00;;;;;;;19.49;37.65;101159.50;4861549;29;20681;-63
2023/05/24 10:00:16;;;;;;;17.10;3.50;;;;;;;19.63;37.79;101155.91;4861262;29;20693;-65
2023/05/24 10:02:45;;;;;;;10.80;3.13;;;;;;;19.76;37.70;101156.06;4854718;29;20218;-66
2023/05/24 10:05:21;;;;;;;11.23;3.07;;;;;;;19.85;38.57;101168.38;4863210;29;20214;-64
2023/05/24 10:07:48;;;;;;;10.40;3.23;;;;;;;19.97;38.44;101159.78;4864132;29;20218;-65
2023/05/24 10:10:18;;;;;;;12.87;2.87;;;;;;;20.06;38.31;101151.38;4863024;29;20210;-64
2023/05/24 10:12:46;;;;;;;13.40;3.40;;;;;;;20.18;37.88;101155.22;4863910;29;20832;-63
2023/05/24 10:15:15;;;;;;;15.80;3.43;;;;;;;20.25;38.10;101160.66;4862043;29;20223;-65
2023/05/24 10:17:43;;;;;;;16.87;3.10;;;;;;;20.33;37.47;101165.91;4858550;29;20214;-65
2023/05/24 10:20:12;;;;;;;11.87;3.30;;;;;;;20.44;37.73;101168.09;4862026;29;21541;-64
2023/05/24 10:22:43;;;;;;;13.70;3.43;;;;;;;20.55;37.56;101164.88;4862045;29;20705;-69
2023/05/24 10:25:15;;;;;;;11.33;3.07;;;;;;;20.63;38.21;101151.25;4862021;29;20222;-63
2023/05/24 10:27:45;;;;;;;9.87;3.47;;;;;;;20.65;37.49;101162.66;4853185;29;20377;-64
2023/05/24 10:30:21;;;;;;;14.37;3.80;;;;;;;20.75;37.01;101145.31;4861847;29;20224;-64
2023/05/24 10:32:50;;;;;;;13.07;3.17;;;;;;;20.82;36.79;101143.47;4863753;29;20245;-64
2023/05/24 10:35:19;;;;;;;19.53;4.20;;;;;;;20.72;36.57;101135.75;4862541;29;20270;-66
2023/05/24 10:37:47;;;;;;;9.37;2.93;;;;;;;20.78;37.21;101143.03;4863386;29;20825;-66
2023/05/24 10:40:19;;;;;;;11.17;3.37;;;;;;;20.88;36.38;101135.41;4862959;29;20296;-63
2023/05/24 10:42:49;;;;;;;11.77;3.30;;;;;;;20.97;35.87;101126.13;4864003;29;20253;-63
2023/05/24 10:45:32;;;;;;;12.63;3.17;;;;;;;21.02;35.95;101125.56;4861101;29;20219;-62
2023/05/24 10:48:02;;;;;;;14.33;3.63;;;;;;;21.04;36.50;101126.16;4861939;29;20222;-64
2023/05/24 10:50:30;;;;;;;12.47;3.53;;;;;;;21.19;36.50;101123.38;4861724;29;20227;-63
2023/05/24 10:53:11;;;;;;;13.33;3.30;;;;;;;21.32;36.90;101129.63;4861658;29;20328;-63
2023/05/24 10:55:53;;;;;;;14.83;3.30;;;;;;;21.45;36.05;101136.13;4863352;29;20660;-66
2023/05/24 10:58:29;;;;;;;10.57;2.90;;;;;;;21.46;35.64;101125.09;4863048;29;20302;-65
2023/05/24 11:00:57;;;;;;;12.27;3.47;;;;;;;21.49;35.79;101122.00;4861357;29;20222;-65
2023/05/24 11:03:25;;;;;;;15.13;3.13;;;;;;;21.57;35.63;101127.22;4860607;29;20219;-65
2023/05/24 11:05:54;;;;;;;13.63;4.47;;;;;;;21.67;35.75;101132.22;4860360;29;20310;-64
2023/05/24 11:08:26;;;;;;;8.77;3.30;;;;;;;21.72;35.57;101135.16;4862594;29;20214;-67
2023/05/24 11:11:26;;;;;;;9.80;2.73;;;;;;;21.62;34.72;101129.31;4860122;29;20222;-64
2023/05/24 11:14:00;;;;;;;11.53;3.70;;;;;;;21.67;35.30;101124.13;4850610;29;20214;-65
2023/05/24 11:16:37;;;;;;;9.73;2.73;;;;;;;21.66;34.92;101125.97;4861802;29;20342;-65
2023/05/24 11:19:14;;;;;;;9.83;3.07;;;;;;;21.73;35.45;101121.41;4861132;29;20225;-63
2023/05/24 11:21:44;;;;;;;10.10;2.87;;;;;;;21.76;34.83;101120.19;4860683;29;21751;-64
2023/05/24 11:24:12;;;;;;;10.87;3.20;;;;;;;21.84;34.91;101111.88;4861250;29;20787;-67
2023/05/24 11:26:40;;;;;;;12.63;2.97;;;;;;;21.81;33.33;101114.19;4860362;29;20218;-67
2023/05/24 11:29:09;;;;;;;8.10;2.67;;;;;;;21.88;33.39;101113.16;4861899;29;20269;-64